Terminal Aerodrome Forecast
Issued by NWS

Home | Current Version | Previous Version | Text Only | Print | Product List | Glossary On
Versions: 1 2 3 4 5 6 7 8 9 10 11 12
000
FTAK31 PAFA 032323
TAFAGA
TAF
PAGA 032323Z 0400/0424 15007KT P6SM VCTS SCT035CB BKN050 BKN100
      TEMPO 0400/0404 -TSRA BKN035CB BKN050 OVC100
     FM040400 09005KT P6SM -SHRA BKN035 OVC050=

USA.gov is the U.S. government's official web portal to all federal, state and local government web resources and services.